createdAt,value
2019-03-02T00:01:02.377Z,7.15
2019-03-02T00:02:09.674Z,4.87
2019-03-02T00:03:16.374Z,5.63
2019-03-02T00:04:23.113Z,5.87
2019-03-02T00:05:29.776Z,9.03
2019-03-02T00:06:36.632Z,4.80
2019-03-02T00:07:47.663Z,7.00
2019-03-02T00:08:53.181Z,14.67
2019-03-02T00:09:59.835Z,5.17
2019-03-02T00:11:07.242Z,6.67
2019-03-02T00:12:13.897Z,7.50
2019-03-02T00:13:21.368Z,9.63
2019-03-02T00:14:28.422Z,8.47
2019-03-02T00:15:35.443Z,7.53
2019-03-02T00:16:43.326Z,11.80
2019-03-02T00:17:53.998Z,5.40
2019-03-02T00:18:59.414Z,11.18
2019-03-02T00:20:06.547Z,5.60
2019-03-02T00:21:13.770Z,14.07
2019-03-02T00:22:20.530Z,9.00
2019-03-02T00:23:27.746Z,7.83
2019-03-02T00:24:34.549Z,6.67
2019-03-02T00:25:41.306Z,6.33
2019-03-02T00:26:48.126Z,12.60
2019-03-02T00:27:58.115Z,3.40
2019-03-02T00:29:03.456Z,7.10
2019-03-02T00:30:11.064Z,4.90
2019-03-02T00:31:18.043Z,4.07
2019-03-02T00:32:25.630Z,4.40
2019-03-02T00:33:32.509Z,4.80
2019-03-02T00:34:39.589Z,4.30
2019-03-02T00:35:46.576Z,6.53
2019-03-02T00:36:55.206Z,4.50
2019-03-02T00:38:04.855Z,5.95
2019-03-02T00:39:11.333Z,5.50
2019-03-02T00:40:18.072Z,7.10
2019-03-02T00:41:25.072Z,10.35
2019-03-02T00:42:32.073Z,3.13
2019-03-02T00:43:39.844Z,3.62
2019-03-02T00:44:46.563Z,3.43
2019-03-02T00:45:53.706Z,2.83
2019-03-02T00:47:01.114Z,2.90
2019-03-02T00:48:11.124Z,5.77
2019-03-02T00:49:19.516Z,4.85
2019-03-02T00:50:25.583Z,5.53
2019-03-02T00:51:33.088Z,3.72
2019-03-02T00:52:39.812Z,6.85
2019-03-02T00:53:46.994Z,4.23
2019-03-02T00:54:58.158Z,12.10
2019-03-02T00:56:04.051Z,5.50
2019-03-02T00:57:14.748Z,2.70
2019-03-02T00:58:20.217Z,4.00
2019-03-02T00:59:27.250Z,4.90
2019-03-02T01:00:34.724Z,8.90
2019-03-02T01:01:41.427Z,8.30
2019-03-02T01:02:48.583Z,4.97
2019-03-02T01:03:55.781Z,3.90
2019-03-02T01:05:03.096Z,4.90
2019-03-02T01:06:12.701Z,5.57
2019-03-02T01:07:20.750Z,2.33
2019-03-02T01:08:27.550Z,5.03
2019-03-02T01:09:34.640Z,3.73
2019-03-02T01:10:41.374Z,4.33
2019-03-02T01:11:48.225Z,4.83
2019-03-02T01:12:55.087Z,2.40
2019-03-02T01:14:02.141Z,5.70
2019-03-02T01:15:13.025Z,7.50
2019-03-02T01:16:20.875Z,5.53
2019-03-02T01:17:30.779Z,4.87
2019-03-02T01:18:38.728Z,3.73
2019-03-02T01:19:44.895Z,3.40
2019-03-02T01:20:51.659Z,4.77
2019-03-02T01:21:58.619Z,5.07
2019-03-02T01:23:05.737Z,3.80
2019-03-02T01:24:12.641Z,6.23
2019-03-02T01:25:19.643Z,5.03
2019-03-02T01:26:26.394Z,4.43
2019-03-02T01:27:35.058Z,1.60
2019-03-02T01:28:41.639Z,4.67
2019-03-02T01:29:51.668Z,8.50
2019-03-02T01:31:01.787Z,2.10
2019-03-02T01:32:07.472Z,4.57
2019-03-02T01:33:14.825Z,3.37
2019-03-02T01:34:22.219Z,3.77
2019-03-02T01:35:29.177Z,4.37
2019-03-02T01:36:36.374Z,4.73
2019-03-02T01:37:43.972Z,2.47
2019-03-02T01:38:54.025Z,6.53
2019-03-02T01:40:01.004Z,2.57
2019-03-02T01:41:10.364Z,2.20
2019-03-02T01:42:17.448Z,3.00
2019-03-02T01:43:24.155Z,9.17
2019-03-02T01:44:31.251Z,6.70
2019-03-02T01:45:39.041Z,9.90
2019-03-02T01:46:45.734Z,9.10
2019-03-02T01:47:52.567Z,4.43
2019-03-02T01:49:01.615Z,5.97
2019-03-02T01:50:11.990Z,3.93
2019-03-02T01:51:19.699Z,3.20
2019-03-02T01:52:26.803Z,3.60
2019-03-02T01:53:33.676Z,2.87
2019-03-02T01:54:40.387Z,2.70
2019-03-02T01:55:47.456Z,6.43
2019-03-02T01:56:54.239Z,5.83
2019-03-02T01:58:01.233Z,5.23
2019-03-02T01:59:08.291Z,6.13
2019-03-02T02:00:23.477Z,6.28
2019-03-02T02:01:30.203Z,2.60
2019-03-02T02:02:37.274Z,5.30
2019-03-02T02:03:47.033Z,7.20
2019-03-02T02:04:54.524Z,3.52
2019-03-02T02:06:03.713Z,2.02
2019-03-02T02:07:09.534Z,3.05
2019-03-02T02:08:16.382Z,3.40
2019-03-02T02:09:23.157Z,3.80
2019-03-02T02:10:30.324Z,4.65
2019-03-02T02:11:37.864Z,3.45
2019-03-02T02:12:44.665Z,2.17
2019-03-02T02:13:51.663Z,8.87
2019-03-02T02:14:58.539Z,1.90
2019-03-02T02:16:06.801Z,2.00
2019-03-02T02:17:14.442Z,1.85
2019-03-02T02:18:27.432Z,4.05
2019-03-02T02:19:30.859Z,2.15
2019-03-02T02:20:37.841Z,3.65
2019-03-02T02:21:44.526Z,3.63
2019-03-02T02:22:51.550Z,6.50
2019-03-02T02:23:58.323Z,6.87
2019-03-02T02:25:05.435Z,2.53
2019-03-02T02:26:12.670Z,2.85
2019-03-02T02:27:22.531Z,2.50
2019-03-02T02:28:29.064Z,2.30
2019-03-02T02:29:36.766Z,6.93
2019-03-02T02:30:43.834Z,2.20
2019-03-02T02:31:50.604Z,2.77
2019-03-02T02:33:04.327Z,3.77
2019-03-02T02:34:06.280Z,2.85
2019-03-02T02:35:13.028Z,4.00
2019-03-02T02:36:20.478Z,10.80
2019-03-02T02:37:32.035Z,2.63
2019-03-02T02:38:35.687Z,3.47
2019-03-02T02:39:42.362Z,4.95
2019-03-02T02:40:49.508Z,4.00
2019-03-02T02:41:59.961Z,2.00
2019-03-02T02:43:04.790Z,4.37
2019-03-02T02:44:12.102Z,4.07
2019-03-02T02:45:19.954Z,3.37
2019-03-02T02:46:27.627Z,3.85
2019-03-02T02:47:35.402Z,1.83
2019-03-02T02:48:42.336Z,2.95
2019-03-02T02:49:50.965Z,2.25
2019-03-02T02:50:58.381Z,2.03
2019-03-02T02:52:05.169Z,3.00
2019-03-02T02:53:12.322Z,2.10
2019-03-02T02:54:23.198Z,2.93
2019-03-02T02:55:27.788Z,4.87
2019-03-02T02:56:34.781Z,4.35
2019-03-02T02:57:41.919Z,4.47
2019-03-02T02:58:55.347Z,1.80
2019-03-02T02:59:57.722Z,7.13
2019-03-02T03:01:04.466Z,1.92
2019-03-02T03:02:12.274Z,2.47
2019-03-02T03:03:20.763Z,1.95
2019-03-02T03:04:27.742Z,5.67
2019-03-02T03:05:34.601Z,3.08
2019-03-02T03:06:41.322Z,2.62
2019-03-02T03:07:53.299Z,5.40
2019-03-02T03:08:57.276Z,3.65
2019-03-02T03:10:14.734Z,5.80
2019-03-02T03:11:21.993Z,3.60
2019-03-02T03:12:28.653Z,2.55
2019-03-02T03:13:35.962Z,1.50
2019-03-02T03:14:43.857Z,4.12
2019-03-02T03:15:51.786Z,3.55
2019-03-02T03:16:58.475Z,4.00
2019-03-02T03:18:07.315Z,4.60
2019-03-02T03:19:14.247Z,2.77
2019-03-02T03:20:21.217Z,2.13
2019-03-02T03:21:29.503Z,6.40
2019-03-02T03:22:40.907Z,2.70
2019-03-02T03:23:45.141Z,1.72
2019-03-02T03:24:52.358Z,4.20
2019-03-02T03:25:59.123Z,7.10
2019-03-02T03:27:09.032Z,4.13
2019-03-02T03:28:15.377Z,3.72
2019-03-02T03:29:22.447Z,4.20
2019-03-02T03:30:35.387Z,2.08
2019-03-02T03:31:37.982Z,2.40
2019-03-02T03:32:54.708Z,3.05
2019-03-02T03:33:53.045Z,3.12
2019-03-02T03:34:59.737Z,3.15
2019-03-02T03:36:06.428Z,2.60
2019-03-02T03:37:14.920Z,2.65
2019-03-02T03:38:24.922Z,5.28
2019-03-02T03:39:30.811Z,3.92
2019-03-02T03:40:38.243Z,3.42
2019-03-02T03:41:45.122Z,4.05
2019-03-02T03:42:52.364Z,3.98
2019-03-02T03:43:59.485Z,3.08
2019-03-02T03:45:09.851Z,6.28
2019-03-02T03:46:17.831Z,3.97
2019-03-02T03:47:25.232Z,5.15
2019-03-02T03:48:32.436Z,4.42
2019-03-02T03:49:39.405Z,10.65
2019-03-02T03:50:48.020Z,4.20
2019-03-02T03:51:55.490Z,3.67
2019-03-02T03:53:02.139Z,4.67
2019-03-02T03:54:09.298Z,7.87
2019-03-02T03:55:23.801Z,3.20
2019-03-02T03:56:26.270Z,3.77
2019-03-02T03:57:33.311Z,3.70
2019-03-02T03:58:41.446Z,4.50
2019-03-02T03:59:53.619Z,7.72
2019-03-02T04:00:57.240Z,6.50
2019-03-02T04:02:04.454Z,2.55
2019-03-02T04:03:13.631Z,4.50
2019-03-02T04:04:19.830Z,6.20
2019-03-02T04:05:27.080Z,4.55
2019-03-02T04:06:33.929Z,4.00
2019-03-02T04:07:48.908Z,3.95
2019-03-02T04:08:49.788Z,7.00
2019-03-02T04:09:57.006Z,5.83
2019-03-02T04:11:04.680Z,4.83
2019-03-02T04:12:12.869Z,4.95
2019-03-02T04:13:19.582Z,7.72
2019-03-02T04:14:26.328Z,4.17
2019-03-02T04:15:40.991Z,5.85
2019-03-02T04:16:41.781Z,3.92
2019-03-02T04:17:48.474Z,5.33
2019-03-02T04:19:00.148Z,8.20
2019-03-02T04:20:12.544Z,6.37
2019-03-02T04:21:23.206Z,5.45
2019-03-02T04:22:28.549Z,6.62
2019-03-02T04:23:35.250Z,6.55
2019-03-02T04:24:42.345Z,7.55
2019-03-02T04:25:52.031Z,13.60
2019-03-02T04:26:57.398Z,11.85
2019-03-02T04:28:05.911Z,6.28
2019-03-02T04:29:12.631Z,8.80
2019-03-02T04:30:19.307Z,9.00
2019-03-02T04:31:25.983Z,7.42
2019-03-02T04:32:32.717Z,7.60
2019-03-02T04:33:43.263Z,9.10
2019-03-02T04:34:49.666Z,6.70
2019-03-02T04:35:56.350Z,8.00
2019-03-02T04:37:03.099Z,11.40
2019-03-02T04:38:09.791Z,11.68
2019-03-02T04:39:16.933Z,13.28
2019-03-02T04:40:27.851Z,8.53
2019-03-02T04:41:32.077Z,8.28
2019-03-02T04:42:38.728Z,9.75
2019-03-02T04:43:45.829Z,11.30
2019-03-02T04:44:52.549Z,11.05
2019-03-02T04:45:59.537Z,10.55
2019-03-02T04:47:06.240Z,12.90
2019-03-02T04:48:12.912Z,15.50
2019-03-02T04:49:19.598Z,10.30
2019-03-02T04:50:27.043Z,10.97
2019-03-02T04:51:38.812Z,11.60
2019-03-02T04:52:46.691Z,10.35
2019-03-02T04:53:52.165Z,11.90
2019-03-02T04:54:59.635Z,9.93
2019-03-02T04:56:06.404Z,12.93
2019-03-02T04:57:13.664Z,11.10
2019-03-02T04:58:20.338Z,9.78
2019-03-02T04:59:27.419Z,11.33
2019-03-02T05:00:34.109Z,9.67
2019-03-02T05:01:43.730Z,18.37
2019-03-02T05:02:51.567Z,10.60
2019-03-02T05:03:58.342Z,15.33
2019-03-02T05:05:08.339Z,14.03
2019-03-02T05:06:15.705Z,13.75
2019-03-02T05:07:22.141Z,11.05
2019-03-02T05:08:29.019Z,15.33
2019-03-02T05:09:35.736Z,11.80
2019-03-02T05:10:42.395Z,14.30
2019-03-02T05:11:49.463Z,11.70
2019-03-02T05:12:56.444Z,11.85
2019-03-02T05:14:04.301Z,12.30
2019-03-02T05:15:16.009Z,13.30
2019-03-02T05:16:21.986Z,15.53
2019-03-02T05:17:28.724Z,13.13
2019-03-02T05:18:35.427Z,14.23
2019-03-02T05:19:42.144Z,13.23
2019-03-02T05:20:49.095Z,13.68
2019-03-02T05:21:55.832Z,12.03
2019-03-02T05:23:02.876Z,13.33
2019-03-02T05:24:10.203Z,14.05
2019-03-02T05:25:19.039Z,13.05
2019-03-02T05:26:25.900Z,13.10
2019-03-02T05:27:32.998Z,13.68
2019-03-02T05:28:42.989Z,13.93
2019-03-02T05:29:50.771Z,14.80
2019-03-02T05:30:56.814Z,16.00
2019-03-02T05:32:04.286Z,14.80
2019-03-02T05:33:11.592Z,11.95
2019-03-02T05:34:18.610Z,15.45
2019-03-02T05:35:25.703Z,16.10
2019-03-02T05:36:33.229Z,19.80
2019-03-02T05:37:40.714Z,13.58
2019-03-02T05:38:47.963Z,14.57
2019-03-02T05:39:54.709Z,14.33
2019-03-02T05:41:02.602Z,16.87
2019-03-02T05:42:13.547Z,12.20
2019-03-02T05:43:19.141Z,15.20
2019-03-02T05:44:25.891Z,15.10
2019-03-02T05:45:32.559Z,15.33
2019-03-02T05:46:39.263Z,13.87
2019-03-02T05:47:45.976Z,17.05
2019-03-02T05:48:52.732Z,12.70
2019-03-02T05:49:59.410Z,13.83
2019-03-02T05:51:06.739Z,19.03
2019-03-02T05:52:14.493Z,13.90
2019-03-02T05:53:22.425Z,13.87
2019-03-02T05:54:29.313Z,14.30
2019-03-02T05:55:36.027Z,18.03
2019-03-02T05:56:42.753Z,14.37
2019-03-02T05:57:49.412Z,14.83
2019-03-02T05:58:56.464Z,13.73
2019-03-02T06:00:03.417Z,14.23
2019-03-02T06:01:10.465Z,14.10
2019-03-02T06:02:18.196Z,14.13
2019-03-02T06:03:25.254Z,14.55
2019-03-02T06:04:32.321Z,13.05
2019-03-02T06:05:39.464Z,15.40
2019-03-02T06:06:46.257Z,17.48
2019-03-02T06:07:53.837Z,14.00
2019-03-02T06:09:01.734Z,16.27
2019-03-02T06:10:09.686Z,12.00
2019-03-02T06:11:16.503Z,15.18
2019-03-02T06:12:23.248Z,13.03
2019-03-02T06:13:30.353Z,17.70
2019-03-02T06:14:37.022Z,14.85
2019-03-02T06:15:46.366Z,13.28
2019-03-02T06:16:53.734Z,14.23
2019-03-02T06:18:04.387Z,14.43
2019-03-02T06:19:10.275Z,13.47
2019-03-02T06:20:17.654Z,13.58
2019-03-02T06:21:24.638Z,15.88
2019-03-02T06:22:32.501Z,14.27
2019-03-02T06:23:39.216Z,14.58
2019-03-02T06:24:45.962Z,12.00
2019-03-02T06:25:55.131Z,18.92
2019-03-02T06:27:01.734Z,11.50
2019-03-02T06:28:08.809Z,16.87
2019-03-02T06:29:15.837Z,20.17
2019-03-02T06:30:22.970Z,14.97
2019-03-02T06:31:30.398Z,11.05
2019-03-02T06:32:37.470Z,15.67
2019-03-02T06:33:45.327Z,21.23
2019-03-02T06:34:55.780Z,10.57
2019-03-02T06:36:00.924Z,13.90
2019-03-02T06:37:07.601Z,16.30
2019-03-02T06:38:14.318Z,12.70
2019-03-02T06:39:20.996Z,13.20
2019-03-02T06:40:28.550Z,14.60
2019-03-02T06:41:35.262Z,13.53
2019-03-02T06:42:45.592Z,11.80
2019-03-02T06:43:50.572Z,16.50
2019-03-02T06:44:57.312Z,12.55
2019-03-02T06:46:04.049Z,14.33
2019-03-02T06:47:10.741Z,12.98
2019-03-02T06:48:17.785Z,13.80
2019-03-02T06:49:24.520Z,19.32
2019-03-02T06:50:35.300Z,17.07
2019-03-02T06:51:40.036Z,18.30
2019-03-02T06:52:46.712Z,19.98
2019-03-02T06:53:55.260Z,18.40
2019-03-02T06:55:02.410Z,14.98
2019-03-02T06:56:09.446Z,17.80
2019-03-02T06:57:17.017Z,18.17
2019-03-02T06:58:27.201Z,17.37
2019-03-02T06:59:35.779Z,16.15
2019-03-02T07:00:45.625Z,17.17
2019-03-02T07:01:51.914Z,17.82
2019-03-02T07:02:58.713Z,20.82
2019-03-02T07:04:05.452Z,22.52
2019-03-02T07:05:12.871Z,16.40
2019-03-02T07:06:20.232Z,23.98
2019-03-02T07:07:27.018Z,17.00
2019-03-02T07:08:36.241Z,18.98
2019-03-02T07:09:45.245Z,18.70
2019-03-02T07:10:54.445Z,17.87
2019-03-02T07:11:59.650Z,18.00
2019-03-02T07:13:08.273Z,20.30
2019-03-02T07:14:16.188Z,22.20
2019-03-02T07:15:23.335Z,26.90
2019-03-02T07:16:30.604Z,21.57
2019-03-02T07:17:56.307Z,17.60
2019-03-02T07:19:21.442Z,21.67
2019-03-02T07:20:29.903Z,21.07
2019-03-02T07:21:37.636Z,19.02
2019-03-02T07:22:48.626Z,20.63
2019-03-02T07:23:53.977Z,19.40
2019-03-02T07:25:01.453Z,18.67
2019-03-02T07:26:09.316Z,21.77
2019-03-02T07:27:16.704Z,22.53
2019-03-02T07:28:23.753Z,21.12
2019-03-02T07:29:32.023Z,18.20
2019-03-02T07:30:40.748Z,19.60
2019-03-02T07:31:48.082Z,18.35
2019-03-02T07:32:55.177Z,20.43
2019-03-02T07:34:04.823Z,20.10
2019-03-02T07:35:11.167Z,20.97
2019-03-02T07:36:18.270Z,18.62
2019-03-02T07:37:25.189Z,20.67
2019-03-02T07:38:32.468Z,21.00
2019-03-02T07:39:39.981Z,18.80
2019-03-02T07:40:47.149Z,20.12
2019-03-02T07:41:58.000Z,22.97
2019-03-02T07:43:06.043Z,20.73
2019-03-02T07:44:11.805Z,18.40
2019-03-02T07:45:19.592Z,18.85
2019-03-02T07:46:26.330Z,20.30
2019-03-02T07:47:33.072Z,20.03
2019-03-02T07:48:40.439Z,26.17
2019-03-02T07:49:49.815Z,22.17
2019-03-02T07:50:56.771Z,23.20
2019-03-02T07:52:03.465Z,21.55
2019-03-02T07:53:10.151Z,21.30
2019-03-02T07:54:16.858Z,23.17
2019-03-02T07:55:23.622Z,24.65
2019-03-02T07:56:32.513Z,22.60
2019-03-02T07:57:40.634Z,21.70
2019-03-02T07:58:47.959Z,22.40
2019-03-02T07:59:54.745Z,25.30
2019-03-02T08:01:01.454Z,22.23
2019-03-02T08:02:08.429Z,24.03
2019-03-02T08:03:15.591Z,18.60
2019-03-02T08:04:22.639Z,19.63
2019-03-02T08:05:29.753Z,21.70
2019-03-02T08:06:36.670Z,21.87
2019-03-02T08:07:43.994Z,30.37
2019-03-02T08:08:51.401Z,23.77
2019-03-02T08:09:58.991Z,25.20
2019-03-02T08:11:07.133Z,25.60
2019-03-02T08:12:14.413Z,19.30
2019-03-02T08:13:21.161Z,25.40
2019-03-02T08:14:27.990Z,25.60
2019-03-02T08:15:35.296Z,22.40
2019-03-02T08:16:42.196Z,25.80
2019-03-02T08:17:50.145Z,29.90
2019-03-02T08:19:00.523Z,26.63
2019-03-02T08:20:08.470Z,21.83
2019-03-02T08:21:15.700Z,26.90
2019-03-02T08:22:22.727Z,21.48
2019-03-02T08:23:29.616Z,29.32
2019-03-02T08:24:40.256Z,20.65
2019-03-02T08:25:45.595Z,26.77
2019-03-02T08:26:52.520Z,26.37
2019-03-02T08:27:59.890Z,27.03
2019-03-02T08:29:06.960Z,25.88
2019-03-02T08:30:16.988Z,24.40
2019-03-02T08:31:24.102Z,25.30
2019-03-02T08:32:31.248Z,26.57
2019-03-02T08:33:45.845Z,22.53
2019-03-02T08:34:48.634Z,21.90
2019-03-02T08:35:57.061Z,28.70
2019-03-02T08:37:04.188Z,23.73
2019-03-02T08:38:10.949Z,21.53
2019-03-02T08:39:17.867Z,20.60
2019-03-02T08:40:25.238Z,26.83
2019-03-02T08:41:32.914Z,25.83
2019-03-02T08:42:41.531Z,24.50
2019-03-02T08:43:48.563Z,20.13
2019-03-02T08:44:55.314Z,23.07
2019-03-02T08:46:03.553Z,29.57
2019-03-02T08:47:11.496Z,29.00
2019-03-02T08:48:18.570Z,24.35
2019-03-02T08:49:26.102Z,24.60
2019-03-02T08:50:33.060Z,25.93
2019-03-02T08:51:40.161Z,23.20
2019-03-02T08:52:47.491Z,21.90
2019-03-02T08:53:54.250Z,27.73
2019-03-02T08:55:01.178Z,21.83
2019-03-02T08:56:09.895Z,29.90
2019-03-02T08:57:19.590Z,21.90
2019-03-02T08:58:25.314Z,27.13
2019-03-02T08:59:34.760Z,23.75
2019-03-02T09:00:43.152Z,23.43
2019-03-02T09:01:51.273Z,25.77
2019-03-02T09:03:00.476Z,24.83
2019-03-02T09:04:10.176Z,28.00
2019-03-02T09:05:16.032Z,25.27
2019-03-02T09:06:22.806Z,27.73
2019-03-02T09:07:29.933Z,23.30
2019-03-02T09:08:36.839Z,26.30
2019-03-02T09:09:43.856Z,26.93
2019-03-02T09:10:50.863Z,27.10
2019-03-02T09:11:57.594Z,26.07
2019-03-02T09:13:04.327Z,29.13
2019-03-02T09:14:12.718Z,29.97
2019-03-02T09:15:31.103Z,36.83
2019-03-02T09:16:38.641Z,28.75
2019-03-02T09:17:50.155Z,35.40
2019-03-02T09:18:55.254Z,27.60
2019-03-02T09:20:02.331Z,34.57
2019-03-02T09:21:12.411Z,35.10
2019-03-02T09:22:20.785Z,27.80
2019-03-02T09:23:27.397Z,38.10
2019-03-02T09:24:34.750Z,29.87
2019-03-02T09:25:41.466Z,34.10
2019-03-02T09:26:48.210Z,33.80
2019-03-02T09:27:55.585Z,32.50
2019-03-02T09:29:02.295Z,34.20
2019-03-02T09:30:13.111Z,37.33
2019-03-02T09:31:26.135Z,34.67
2019-03-02T09:32:28.514Z,34.27
2019-03-02T09:33:35.252Z,31.27
2019-03-02T09:34:42.254Z,35.03
2019-03-02T09:35:54.568Z,35.93
2019-03-02T09:36:58.058Z,37.10
2019-03-02T09:38:04.785Z,36.70
2019-03-02T09:39:11.792Z,32.10
2019-03-02T09:40:18.535Z,35.47
2019-03-02T09:41:25.605Z,37.57
2019-03-02T09:42:37.895Z,35.20
2019-03-02T09:43:41.755Z,35.20
2019-03-02T09:44:49.988Z,39.80
2019-03-02T09:46:08.661Z,39.57
2019-03-02T09:47:15.379Z,39.10
2019-03-02T09:48:24.600Z,42.40
2019-03-02T09:49:33.909Z,39.20
2019-03-02T09:50:38.987Z,41.77
2019-03-02T09:51:48.280Z,39.43
2019-03-02T09:52:55.812Z,40.07
2019-03-02T09:54:03.061Z,44.37
2019-03-02T09:55:11.363Z,36.27
2019-03-02T09:56:18.020Z,43.40
2019-03-02T09:57:24.755Z,44.60
2019-03-02T09:58:31.427Z,40.73
2019-03-02T09:59:38.111Z,37.67
2019-03-02T10:00:45.352Z,44.30
2019-03-02T10:01:52.469Z,42.73
2019-03-02T10:02:59.580Z,43.37
2019-03-02T10:04:06.414Z,44.97
2019-03-02T10:05:14.712Z,48.00
2019-03-02T10:06:25.295Z,44.40
2019-03-02T10:07:30.852Z,44.73
2019-03-02T10:08:37.567Z,45.07
2019-03-02T10:09:44.576Z,52.88
2019-03-02T10:10:51.889Z,49.50
2019-03-02T10:11:58.624Z,46.60
2019-03-02T10:13:05.297Z,48.50
2019-03-02T10:14:26.562Z,46.10
2019-03-02T10:15:34.164Z,47.33
2019-03-02T10:16:40.889Z,48.77
2019-03-02T10:17:47.855Z,61.50
2019-03-02T10:18:54.881Z,49.97
2019-03-02T10:20:05.133Z,50.53
2019-03-02T10:21:10.928Z,54.37
2019-03-02T10:22:19.802Z,53.80
2019-03-02T10:23:26.659Z,51.10
2019-03-02T10:24:33.729Z,50.93
2019-03-02T10:25:40.497Z,50.60
2019-03-02T10:26:47.611Z,54.60
2019-03-02T10:27:57.394Z,54.50
2019-03-02T10:29:03.182Z,56.57
2019-03-02T10:30:13.991Z,52.27
2019-03-02T10:31:20.706Z,48.80
2019-03-02T10:32:28.226Z,55.70
2019-03-02T10:33:34.975Z,50.20
2019-03-02T10:34:42.796Z,57.33
2019-03-02T10:35:53.252Z,50.60
2019-03-02T10:36:59.075Z,56.70
2019-03-02T10:38:06.265Z,54.90
2019-03-02T10:39:13.257Z,58.17
2019-03-02T10:40:20.166Z,62.87
2019-03-02T10:41:27.171Z,56.53
2019-03-02T10:42:35.977Z,54.50
2019-03-02T10:43:42.742Z,50.87
2019-03-02T10:44:49.681Z,64.00
2019-03-02T10:45:56.861Z,52.47
2019-03-02T10:47:05.440Z,47.47
2019-03-02T10:48:12.143Z,62.63
2019-03-02T10:49:19.318Z,56.27
2019-03-02T10:50:26.122Z,63.30
2019-03-02T10:51:33.948Z,62.73
2019-03-02T10:52:41.593Z,59.60
2019-03-02T10:53:48.682Z,59.97
2019-03-02T10:54:55.784Z,69.17
2019-03-02T10:56:02.743Z,63.33
2019-03-02T10:57:09.739Z,57.03
2019-03-02T10:58:17.068Z,55.73
2019-03-02T10:59:24.415Z,59.53
2019-03-02T11:00:31.699Z,51.57
2019-03-02T11:01:39.771Z,61.90
2019-03-02T11:02:48.007Z,60.00
2019-03-02T11:03:54.830Z,59.27
2019-03-02T11:05:10.134Z,57.77
2019-03-02T11:06:39.261Z,52.93
2019-03-02T11:08:06.296Z,51.63
2019-03-02T11:09:28.399Z,62.00
2019-03-02T11:10:42.556Z,63.03
2019-03-02T11:12:08.175Z,60.73
2019-03-02T11:13:26.557Z,56.47
2019-03-02T11:14:51.180Z,63.27
2019-03-02T11:16:23.529Z,56.07
2019-03-02T11:18:01.839Z,53.23
2019-03-02T11:19:34.111Z,60.70
2019-03-02T11:21:02.720Z,62.53
2019-03-02T11:22:38.775Z,52.43
2019-03-02T11:24:01.787Z,45.27
2019-03-02T11:25:27.507Z,57.40
2019-03-02T11:26:53.058Z,60.80
2019-03-02T11:28:17.726Z,58.87
2019-03-02T11:29:40.234Z,51.17
2019-03-02T11:31:06.076Z,62.00
2019-03-02T11:32:26.432Z,50.17
2019-03-02T11:34:01.334Z,57.50
2019-03-02T11:35:24.087Z,57.50
2019-03-02T11:36:52.524Z,48.87
2019-03-02T11:38:13.084Z,51.77
2019-03-02T11:39:41.370Z,53.03
2019-03-02T11:40:57.703Z,47.20
2019-03-02T11:42:29.371Z,57.10
2019-03-02T11:43:55.107Z,48.60
2019-03-02T11:45:38.254Z,47.53
2019-03-02T11:46:57.923Z,51.80
2019-03-02T11:48:22.579Z,54.90
2019-03-02T11:49:41.167Z,49.60
2019-03-02T11:50:55.576Z,53.83
2019-03-02T11:52:24.971Z,49.50
2019-03-02T11:54:03.423Z,54.00
2019-03-02T11:55:22.697Z,45.23
2019-03-02T11:56:48.418Z,50.23
2019-03-02T11:58:12.123Z,45.43
2019-03-02T11:59:42.093Z,43.83
2019-03-02T12:01:12.239Z,44.67
2019-03-02T12:02:37.876Z,40.73
2019-03-02T12:04:01.772Z,42.83
2019-03-02T12:05:41.458Z,44.00
2019-03-02T12:07:05.048Z,40.07
2019-03-02T12:08:22.013Z,46.30
2019-03-02T12:09:48.210Z,43.10
2019-03-02T12:11:13.982Z,43.90
2019-03-02T12:12:32.282Z,43.17
2019-03-02T12:14:00.917Z,45.43
2019-03-02T12:15:26.331Z,51.93
2019-03-02T12:17:04.591Z,45.40
2019-03-02T12:18:37.703Z,54.13
2019-03-02T12:20:09.113Z,48.77
2019-03-02T12:21:33.117Z,44.93
2019-03-02T12:22:47.874Z,46.83
2019-03-02T12:24:31.835Z,48.47
2019-03-02T12:26:02.070Z,47.33
2019-03-02T12:27:27.144Z,55.13
2019-03-02T12:29:09.207Z,51.10
2019-03-02T12:30:33.260Z,48.10
2019-03-02T12:31:58.819Z,48.33
2019-03-02T12:33:33.286Z,52.37
2019-03-02T12:35:04.041Z,51.87
2019-03-02T12:36:23.081Z,52.20
2019-03-02T12:37:40.656Z,54.23
2019-03-02T12:39:07.178Z,47.50
2019-03-02T12:40:36.310Z,51.73
2019-03-02T12:42:16.197Z,50.17
2019-03-02T12:44:00.557Z,56.70
2019-03-02T12:45:42.244Z,55.37
2019-03-02T12:47:10.885Z,46.37
2019-03-02T12:48:36.817Z,59.13
2019-03-02T12:50:18.921Z,50.93
2019-03-02T12:52:00.915Z,57.27
2019-03-02T12:53:17.899Z,52.87
2019-03-02T12:54:43.327Z,55.23
2019-03-02T12:56:09.620Z,54.23
2019-03-02T12:57:24.693Z,61.70
2019-03-02T12:58:44.592Z,47.47
2019-03-02T13:00:09.099Z,51.10
2019-03-02T13:01:43.023Z,57.60
2019-03-02T13:03:15.096Z,49.00
2019-03-02T13:04:51.335Z,55.63
2019-03-02T13:06:20.904Z,52.50
2019-03-02T13:07:50.836Z,50.43
2019-03-02T13:09:10.407Z,55.37
2019-03-02T13:10:27.227Z,61.70
2019-03-02T13:12:02.016Z,54.10
2019-03-02T13:13:20.739Z,55.27
2019-03-02T13:14:59.349Z,51.87
2019-03-02T13:16:19.908Z,58.13
2019-03-02T13:18:03.643Z,55.13
2019-03-02T13:19:28.143Z,51.40
2019-03-02T13:20:52.745Z,55.23
2019-03-02T13:22:29.719Z,57.43
2019-03-02T13:24:08.046Z,54.63
2019-03-02T13:25:37.139Z,45.10
2019-03-02T13:26:52.303Z,54.27
2019-03-02T13:28:17.206Z,48.07
2019-03-02T13:29:49.115Z,51.07
2019-03-02T13:31:34.280Z,51.53
2019-03-02T13:32:56.040Z,47.43
2019-03-02T13:34:28.559Z,54.63
2019-03-02T13:36:00.529Z,52.33
2019-03-02T13:37:33.403Z,48.27
2019-03-02T13:38:49.841Z,53.17
2019-03-02T13:40:22.401Z,56.73
2019-03-02T13:41:38.483Z,51.10
2019-03-02T13:42:52.322Z,51.63
2019-03-02T13:44:17.907Z,53.23
2019-03-02T13:45:41.355Z,48.07
2019-03-02T13:47:16.513Z,46.30
2019-03-02T13:48:40.344Z,49.67
2019-03-02T13:50:04.480Z,49.17
2019-03-02T13:51:21.046Z,52.50
2019-03-02T13:52:52.635Z,50.67
2019-03-02T13:54:18.532Z,47.97
2019-03-02T13:55:45.933Z,53.27
2019-03-02T13:57:16.649Z,51.40
2019-03-02T13:58:51.142Z,49.70
2019-03-02T14:00:11.227Z,51.23
2019-03-02T14:01:40.802Z,44.50
2019-03-02T14:03:14.182Z,49.07
2019-03-02T14:05:04.654Z,51.67
2019-03-02T14:06:23.881Z,45.67
2019-03-02T14:07:49.397Z,44.43
2019-03-02T14:09:10.129Z,41.60
2019-03-02T14:10:44.788Z,54.97
2019-03-02T14:12:11.947Z,49.90
2019-03-02T14:13:35.949Z,42.13
2019-03-02T14:15:21.789Z,53.20
2019-03-02T14:16:55.363Z,42.63
2019-03-02T14:18:32.208Z,37.80
2019-03-02T14:19:49.330Z,38.77
2019-03-02T14:21:24.086Z,36.20
2019-03-02T14:22:52.343Z,44.73
2019-03-02T14:24:25.524Z,35.27
2019-03-02T14:25:49.524Z,40.20
2019-03-02T14:27:27.961Z,41.57
2019-03-02T14:28:56.266Z,33.17
2019-03-02T14:30:09.232Z,39.50
2019-03-02T14:31:34.180Z,40.17
2019-03-02T14:32:53.086Z,36.47
2019-03-02T14:34:12.044Z,41.97
2019-03-02T14:35:28.268Z,45.20
2019-03-02T14:36:50.272Z,57.97
2019-03-02T14:38:15.807Z,43.30
2019-03-02T14:40:00.263Z,42.73
2019-03-02T14:41:24.498Z,49.57
2019-03-02T14:43:02.028Z,45.60
2019-03-02T14:44:33.492Z,40.70
2019-03-02T14:45:46.710Z,42.33
2019-03-02T14:47:11.988Z,43.37
2019-03-02T14:48:45.951Z,41.50
2019-03-02T14:50:23.236Z,44.80
2019-03-02T14:51:39.219Z,43.63
2019-03-02T14:52:54.688Z,47.63
2019-03-02T14:54:20.773Z,38.37
2019-03-02T14:55:48.911Z,43.33
2019-03-02T14:57:12.003Z,40.03
2019-03-02T14:58:37.817Z,35.80
2019-03-02T15:00:02.592Z,36.60
2019-03-02T15:01:22.094Z,33.80
2019-03-02T15:03:03.095Z,31.30
2019-03-02T15:04:47.127Z,36.90
2019-03-02T15:06:15.403Z,30.03
2019-03-02T15:08:00.279Z,34.53
2019-03-02T15:09:15.956Z,38.57
2019-03-02T15:10:28.285Z,34.90
2019-03-02T15:11:51.619Z,33.70
2019-03-02T15:13:10.957Z,37.43
2019-03-02T15:14:45.227Z,28.33
2019-03-02T15:16:16.293Z,31.60
2019-03-02T15:17:45.227Z,32.27
2019-03-02T15:19:08.221Z,37.53
2019-03-02T15:20:37.421Z,32.60
2019-03-02T15:22:24.250Z,33.60
2019-03-02T15:23:49.187Z,28.53
2019-03-02T15:25:13.833Z,31.20
2019-03-02T15:26:43.284Z,33.90
2019-03-02T15:28:01.132Z,32.60
2019-03-02T15:29:16.119Z,31.70
2019-03-02T15:30:44.832Z,28.10
2019-03-02T15:32:10.346Z,30.93
2019-03-02T15:33:23.063Z,26.20
2019-03-02T15:34:49.903Z,28.90
2019-03-02T15:36:14.623Z,35.25
2019-03-02T15:37:34.544Z,25.63
2019-03-02T15:39:03.491Z,27.63
2019-03-02T15:40:36.197Z,32.53
2019-03-02T15:42:08.953Z,32.20
2019-03-02T15:43:35.866Z,25.07